sensor_id;sensor_type;location;lat;lon;timestamp;pressure;altitude;pressure_sealevel;temperature;humidity
76973;BME280;65907;53.640;10.050;2023-04-03T00:00:28;102472.91;;;18.18;35.86
76973;BME280;65907;53.640;10.050;2023-04-03T00:02:53;102474.59;;;18.19;35.87
76973;BME280;65907;53.640;10.050;2023-04-03T00:05:18;102469.75;;;18.12;36.16
76973;BME280;65907;53.640;10.050;2023-04-03T00:07:43;102481.16;;;18.28;35.67
76973;BME280;65907;53.640;10.050;2023-04-03T00:10:08;102480.72;;;18.18;35.74
76973;BME280;65907;53.640;10.050;2023-04-03T00:12:34;102485.78;;;18.22;35.75
76973;BME280;65907;53.640;10.050;2023-04-03T00:14:59;102489.38;;;18.19;35.97
76973;BME280;65907;53.640;10.050;2023-04-03T00:17:27;102483.19;;;18.22;35.80
76973;BME280;65907;53.640;10.050;2023-04-03T00:19:52;102484.75;;;18.26;35.92
76973;BME280;65907;53.640;10.050;2023-04-03T00:22:18;102492.34;;;18.30;35.77
76973;BME280;65907;53.640;10.050;2023-04-03T00:24:43;102486.69;;;18.20;35.93
76973;BME280;65907;53.640;10.050;2023-04-03T00:27:08;102491.25;;;18.15;35.98
76973;BME280;65907;53.640;10.050;2023-04-03T00:29:35;102485.59;;;18.26;35.75
76973;BME280;65907;53.640;10.050;2023-04-03T00:32:01;102492.44;;;18.08;35.86
76973;BME280;65907;53.640;10.050;2023-04-03T00:34:28;102495.88;;;18.09;36.10
76973;BME280;65907;53.640;10.050;2023-04-03T00:36:53;102499.22;;;18.12;35.95
76973;BME280;65907;53.640;10.050;2023-04-03T00:39:19;102500.56;;;18.21;35.65
76973;BME280;65907;53.640;10.050;2023-04-03T00:41:44;102502.91;;;18.06;35.76
76973;BME280;65907;53.640;10.050;2023-04-03T00:44:23;102505.13;;;18.16;35.84
76973;BME280;65907;53.640;10.050;2023-04-03T00:47:13;102510.94;;;18.02;35.88
76973;BME280;65907;53.640;10.050;2023-04-03T00:49:39;102503.63;;;18.10;36.08
76973;BME280;65907;53.640;10.050;2023-04-03T00:52:05;102507.88;;;18.13;35.99
76973;BME280;65907;53.640;10.050;2023-04-03T00:54:32;102508.91;;;18.09;35.95
76973;BME280;65907;53.640;10.050;2023-04-03T00:57:02;102508.78;;;18.12;35.67
76973;BME280;65907;53.640;10.050;2023-04-03T00:59:30;102516.66;;;18.10;36.05
76973;BME280;65907;53.640;10.050;2023-04-03T01:02:00;102508.13;;;18.06;36.10
76973;BME280;65907;53.640;10.050;2023-04-03T01:06:55;102518.41;;;18.10;35.76
76973;BME280;65907;53.640;10.050;2023-04-03T01:09:21;102515.00;;;18.08;35.68
76973;BME280;65907;53.640;10.050;2023-04-03T01:11:47;102509.91;;;18.06;35.74
76973;BME280;65907;53.640;10.050;2023-04-03T01:14:12;102514.31;;;18.04;35.88
76973;BME280;65907;53.640;10.050;2023-04-03T01:16:38;102517.53;;;17.88;35.96
76973;BME280;65907;53.640;10.050;2023-04-03T01:19:05;102514.91;;;17.88;36.07
76973;BME280;65907;53.640;10.050;2023-04-03T01:26:37;102516.97;;;18.02;35.68
76973;BME280;65907;53.640;10.050;2023-04-03T01:29:03;102518.22;;;18.14;35.42
76973;BME280;65907;53.640;10.050;2023-04-03T01:34:00;102528.25;;;18.03;35.93
76973;BME280;65907;53.640;10.050;2023-04-03T01:36:29;102525.28;;;17.90;36.21
76973;BME280;65907;53.640;10.050;2023-04-03T01:38:55;102527.34;;;18.04;35.94
76973;BME280;65907;53.640;10.050;2023-04-03T01:41:20;102524.66;;;18.05;35.48
76973;BME280;65907;53.640;10.050;2023-04-03T01:43:46;102530.13;;;17.98;35.66
76973;BME280;65907;53.640;10.050;2023-04-03T01:46:14;102531.84;;;17.99;35.66
76973;BME280;65907;53.640;10.050;2023-04-03T01:48:40;102538.03;;;17.96;35.88
76973;BME280;65907;53.640;10.050;2023-04-03T01:51:06;102531.97;;;17.96;35.71
76973;BME280;65907;53.640;10.050;2023-04-03T01:53:31;102532.03;;;17.94;36.04
76973;BME280;65907;53.640;10.050;2023-04-03T01:55:57;102530.22;;;17.96;35.93
76973;BME280;65907;53.640;10.050;2023-04-03T01:58:22;102532.41;;;17.85;35.90
76973;BME280;65907;53.640;10.050;2023-04-03T02:00:47;102533.09;;;17.90;35.70
76973;BME280;65907;53.640;10.050;2023-04-03T02:03:15;102530.78;;;18.04;35.68
76973;BME280;65907;53.640;10.050;2023-04-03T02:05:41;102534.22;;;18.05;35.58
76973;BME280;65907;53.640;10.050;2023-04-03T02:08:08;102530.13;;;17.98;35.77
76973;BME280;65907;53.640;10.050;2023-04-03T02:10:36;102527.25;;;18.05;35.55
76973;BME280;65907;53.640;10.050;2023-04-03T02:13:04;102525.78;;;17.98;35.47
76973;BME280;65907;53.640;10.050;2023-04-03T02:15:29;102533.38;;;18.04;35.70
76973;BME280;65907;53.640;10.050;2023-04-03T02:17:57;102527.50;;;17.99;35.54
76973;BME280;65907;53.640;10.050;2023-04-03T02:20:25;102533.28;;;17.85;35.96
76973;BME280;65907;53.640;10.050;2023-04-03T02:22:52;102527.53;;;17.98;35.48
76973;BME280;65907;53.640;10.050;2023-04-03T02:25:17;102533.78;;;17.94;35.62
76973;BME280;65907;53.640;10.050;2023-04-03T02:27:43;102536.13;;;17.79;35.81
76973;BME280;65907;53.640;10.050;2023-04-03T02:30:10;102531.44;;;17.87;35.56
76973;BME280;65907;53.640;10.050;2023-04-03T02:32:39;102533.78;;;17.94;35.58
76973;BME280;65907;53.640;10.050;2023-04-03T02:35:05;102533.13;;;17.88;35.82
76973;BME280;65907;53.640;10.050;2023-04-03T02:37:31;102539.59;;;18.00;35.47
76973;BME280;65907;53.640;10.050;2023-04-03T02:39:58;102538.28;;;17.90;35.64
76973;BME280;65907;53.640;10.050;2023-04-03T02:42:24;102547.19;;;17.84;35.57
76973;BME280;65907;53.640;10.050;2023-04-03T02:44:49;102542.16;;;17.80;35.86
76973;BME280;65907;53.640;10.050;2023-04-03T02:47:15;102539.69;;;17.76;35.65
76973;BME280;65907;53.640;10.050;2023-04-03T02:49:40;102535.78;;;17.87;35.79
76973;BME280;65907;53.640;10.050;2023-04-03T02:52:08;102544.03;;;17.76;35.74
76973;BME280;65907;53.640;10.050;2023-04-03T02:54:33;102545.16;;;17.70;36.15
76973;BME280;65907;53.640;10.050;2023-04-03T02:56:59;102546.97;;;17.68;36.01
76973;BME280;65907;53.640;10.050;2023-04-03T02:59:25;102547.72;;;17.92;35.55
76973;BME280;65907;53.640;10.050;2023-04-03T03:01:50;102543.06;;;18.01;35.46
76973;BME280;65907;53.640;10.050;2023-04-03T03:04:15;102552.31;;;17.86;35.78
76973;BME280;65907;53.640;10.050;2023-04-03T03:06:40;102545.97;;;17.93;35.43
76973;BME280;65907;53.640;10.050;2023-04-03T03:09:06;102549.16;;;18.00;35.28
76973;BME280;65907;53.640;10.050;2023-04-03T03:11:31;102557.53;;;17.86;35.57
76973;BME280;65907;53.640;10.050;2023-04-03T03:13:57;102560.47;;;17.78;35.51
76973;BME280;65907;53.640;10.050;2023-04-03T03:16:22;102559.13;;;17.90;35.63
76973;BME280;65907;53.640;10.050;2023-04-03T03:18:47;102561.13;;;17.83;35.64
76973;BME280;65907;53.640;10.050;2023-04-03T03:21:12;102560.19;;;17.84;35.52
76973;BME280;65907;53.640;10.050;2023-04-03T03:23:40;102557.03;;;17.76;35.59
76973;BME280;65907;53.640;10.050;2023-04-03T03:26:06;102558.44;;;17.85;35.60
76973;BME280;65907;53.640;10.050;2023-04-03T03:28:32;102562.19;;;17.77;35.71
76973;BME280;65907;53.640;10.050;2023-04-03T03:30:58;102555.34;;;17.75;35.78
76973;BME280;65907;53.640;10.050;2023-04-03T03:33:24;102560.47;;;17.78;35.68
76973;BME280;65907;53.640;10.050;2023-04-03T03:35:50;102563.13;;;17.76;35.79
76973;BME280;65907;53.640;10.050;2023-04-03T03:38:16;102569.47;;;17.69;35.76
76973;BME280;65907;53.640;10.050;2023-04-03T03:40:43;102565.19;;;17.68;35.84
76973;BME280;65907;53.640;10.050;2023-04-03T03:43:11;102573.13;;;17.65;35.87
76973;BME280;65907;53.640;10.050;2023-04-03T03:45:38;102566.88;;;17.69;35.47
76973;BME280;65907;53.640;10.050;2023-04-03T03:48:04;102562.47;;;17.71;35.38
76973;BME280;65907;53.640;10.050;2023-04-03T03:50:29;102560.28;;;17.60;35.56
76973;BME280;65907;53.640;10.050;2023-04-03T03:52:55;102567.72;;;17.70;35.58
76973;BME280;65907;53.640;10.050;2023-04-03T03:55:20;102577.34;;;17.68;35.81
76973;BME280;65907;53.640;10.050;2023-04-03T03:57:50;102568.75;;;17.66;35.99
76973;BME280;65907;53.640;10.050;2023-04-03T04:00:15;102570.44;;;17.67;35.55
76973;BME280;65907;53.640;10.050;2023-04-03T04:02:41;102574.00;;;17.64;35.55
76973;BME280;65907;53.640;10.050;2023-04-03T04:05:09;102572.09;;;17.69;35.47
76973;BME280;65907;53.640;10.050;2023-04-03T04:07:34;102567.47;;;17.76;35.67
76973;BME280;65907;53.640;10.050;2023-04-03T04:09:59;102565.41;;;17.84;35.11
76973;BME280;65907;53.640;10.050;2023-04-03T04:12:24;102553.91;;;17.90;35.10
76973;BME280;65907;53.640;10.050;2023-04-03T04:14:50;102571.56;;;17.82;35.49
76973;BME280;65907;53.640;10.050;2023-04-03T04:17:15;102566.06;;;17.89;35.14
76973;BME280;65907;53.640;10.050;2023-04-03T04:19:40;102568.66;;;17.89;35.03
76973;BME280;65907;53.640;10.050;2023-04-03T04:22:08;102569.84;;;17.82;35.15
76973;BME280;65907;53.640;10.050;2023-04-03T04:24:36;102566.00;;;17.69;35.61
76973;BME280;65907;53.640;10.050;2023-04-03T04:27:01;102567.22;;;17.60;35.64
76973;BME280;65907;53.640;10.050;2023-04-03T04:29:26;102572.44;;;17.60;35.84
76973;BME280;65907;53.640;10.050;2023-04-03T04:31:52;102571.34;;;17.66;35.49
76973;BME280;65907;53.640;10.050;2023-04-03T04:34:17;102584.09;;;17.72;35.63
76973;BME280;65907;53.640;10.050;2023-04-03T04:36:42;102582.50;;;17.69;35.47
76973;BME280;65907;53.640;10.050;2023-04-03T04:39:07;102594.03;;;17.62;35.79
76973;BME280;65907;53.640;10.050;2023-04-03T04:41:33;102591.25;;;17.67;35.57
76973;BME280;65907;53.640;10.050;2023-04-03T04:43:59;102595.66;;;17.65;35.37
76973;BME280;65907;53.640;10.050;2023-04-03T04:46:24;102593.97;;;17.63;35.42
76973;BME280;65907;53.640;10.050;2023-04-03T04:48:50;102596.41;;;17.68;35.22
76973;BME280;65907;53.640;10.050;2023-04-03T04:51:18;102593.81;;;17.68;35.22
76973;BME280;65907;53.640;10.050;2023-04-03T04:53:44;102595.72;;;17.63;35.51
76973;BME280;65907;53.640;10.050;2023-04-03T04:56:10;102598.28;;;17.65;35.63
76973;BME280;65907;53.640;10.050;2023-04-03T04:58:35;102599.06;;;17.67;35.47
76973;BME280;65907;53.640;10.050;2023-04-03T05:01:05;102603.53;;;17.63;35.42
76973;BME280;65907;53.640;10.050;2023-04-03T05:03:30;102603.84;;;17.55;35.80
76973;BME280;65907;53.640;10.050;2023-04-03T05:05:56;102604.38;;;17.63;35.75
76973;BME280;65907;53.640;10.050;2023-04-03T05:08:29;102606.91;;;17.87;35.05
76973;BME280;65907;53.640;10.050;2023-04-03T05:10:59;102610.25;;;17.69;35.59
76973;BME280;65907;53.640;10.050;2023-04-03T05:13:24;102612.84;;;17.69;35.24
76973;BME280;65907;53.640;10.050;2023-04-03T05:15:50;102614.91;;;17.60;35.21
76973;BME280;65907;53.640;10.050;2023-04-03T05:18:15;102612.44;;;17.57;35.87
76973;BME280;65907;53.640;10.050;2023-04-03T05:20:40;102609.94;;;17.76;35.08
76973;BME280;65907;53.640;10.050;2023-04-03T05:23:06;102614.78;;;17.63;35.24
76973;BME280;65907;53.640;10.050;2023-04-03T05:25:37;102616.44;;;17.66;35.41
76973;BME280;65907;53.640;10.050;2023-04-03T05:28:02;102612.19;;;17.63;35.24
76973;BME280;65907;53.640;10.050;2023-04-03T05:30:27;102621.19;;;17.55;35.58
76973;BME280;65907;53.640;10.050;2023-04-03T05:32:53;102623.63;;;17.59;35.32
76973;BME280;65907;53.640;10.050;2023-04-03T05:35:20;102626.41;;;17.55;35.46
76973;BME280;65907;53.640;10.050;2023-04-03T05:37:46;102624.69;;;17.54;35.81
76973;BME280;65907;53.640;10.050;2023-04-03T05:40:11;102624.75;;;17.52;35.43
76973;BME280;65907;53.640;10.050;2023-04-03T05:42:36;102628.53;;;17.67;35.48
76973;BME280;65907;53.640;10.050;2023-04-03T05:45:04;102629.84;;;17.55;35.76
76973;BME280;65907;53.640;10.050;2023-04-03T05:47:29;102632.50;;;17.76;35.09
76973;BME280;65907;53.640;10.050;2023-04-03T05:49:55;102639.84;;;17.66;35.22
76973;BME280;65907;53.640;10.050;2023-04-03T05:52:23;102642.50;;;17.65;35.51
76973;BME280;65907;53.640;10.050;2023-04-03T05:54:50;102649.63;;;17.59;35.56
76973;BME280;65907;53.640;10.050;2023-04-03T05:57:16;102646.78;;;17.66;35.49
76973;BME280;65907;53.640;10.050;2023-04-03T05:59:44;102652.53;;;17.74;35.03
76973;BME280;65907;53.640;10.050;2023-04-03T06:02:11;102650.88;;;17.95;34.88
76973;BME280;65907;53.640;10.050;2023-04-03T06:04:39;102659.38;;;17.99;34.95
76973;BME280;65907;53.640;10.050;2023-04-03T06:07:04;102658.28;;;18.06;34.32
76973;BME280;65907;53.640;10.050;2023-04-03T06:09:30;102661.06;;;18.01;34.82
76973;BME280;65907;53.640;10.050;2023-04-03T06:11:55;102671.81;;;17.92;34.76
76973;BME280;65907;53.640;10.050;2023-04-03T06:14:23;102673.13;;;18.04;34.29
76973;BME280;65907;53.640;10.050;2023-04-03T06:16:48;102681.47;;;18.12;34.23
76973;BME280;65907;53.640;10.050;2023-04-03T06:19:14;102675.69;;;18.26;33.82
76973;BME280;65907;53.640;10.050;2023-04-03T06:21:39;102672.59;;;18.16;34.04
76973;BME280;65907;53.640;10.050;2023-04-03T06:24:04;102679.03;;;18.30;33.94
76973;BME280;65907;53.640;10.050;2023-04-03T06:26:30;102675.25;;;18.37;33.72
76973;BME280;65907;53.640;10.050;2023-04-03T06:28:58;102682.34;;;18.33;33.64
76973;BME280;65907;53.640;10.050;2023-04-03T06:31:23;102674.91;;;18.24;34.30
76973;BME280;65907;53.640;10.050;2023-04-03T06:33:49;102674.72;;;18.29;34.09
76973;BME280;65907;53.640;10.050;2023-04-03T06:36:15;102677.94;;;18.36;34.12
76973;BME280;65907;53.640;10.050;2023-04-03T06:38:44;102676.91;;;18.40;34.07
76973;BME280;65907;53.640;10.050;2023-04-03T06:41:09;102678.38;;;18.25;34.55
76973;BME280;65907;53.640;10.050;2023-04-03T06:43:35;102678.13;;;18.31;34.80
76973;BME280;65907;53.640;10.050;2023-04-03T06:46:03;102687.56;;;18.11;35.30
76973;BME280;65907;53.640;10.050;2023-04-03T06:48:29;102693.75;;;18.09;35.25
76973;BME280;65907;53.640;10.050;2023-04-03T06:50:56;102695.56;;;18.29;34.97
76973;BME280;65907;53.640;10.050;2023-04-03T06:53:22;102694.56;;;18.11;35.17
76973;BME280;65907;53.640;10.050;2023-04-03T06:55:47;102696.78;;;18.20;35.12
76973;BME280;65907;53.640;10.050;2023-04-03T06:58:12;102700.59;;;18.11;35.32
76973;BME280;65907;53.640;10.050;2023-04-03T07:00:38;102705.69;;;18.37;34.97
76973;BME280;65907;53.640;10.050;2023-04-03T07:03:04;102706.13;;;18.67;34.06
76973;BME280;65907;53.640;10.050;2023-04-03T07:05:29;102715.78;;;18.65;34.44
76973;BME280;65907;53.640;10.050;2023-04-03T07:07:54;102716.97;;;18.78;34.02
76973;BME280;65907;53.640;10.050;2023-04-03T07:10:28;102714.22;;;18.82;33.88
76973;BME280;65907;53.640;10.050;2023-04-03T07:12:53;102715.28;;;18.77;34.03
76973;BME280;65907;53.640;10.050;2023-04-03T07:15:18;102718.41;;;18.86;33.78
76973;BME280;65907;53.640;10.050;2023-04-03T07:17:44;102721.47;;;18.96;33.98
76973;BME280;65907;53.640;10.050;2023-04-03T07:20:12;102722.47;;;18.93;34.17
76973;BME280;65907;53.640;10.050;2023-04-03T07:22:37;102726.75;;;18.94;34.14
76973;BME280;65907;53.640;10.050;2023-04-03T07:25:05;102727.59;;;18.95;33.72
76973;BME280;65907;53.640;10.050;2023-04-03T07:27:34;102730.19;;;18.95;33.97
76973;BME280;65907;53.640;10.050;2023-04-03T07:29:59;102723.00;;;19.01;33.93
76973;BME280;65907;53.640;10.050;2023-04-03T07:32:25;102717.69;;;19.03;33.88
76973;BME280;65907;53.640;10.050;2023-04-03T07:34:50;102721.34;;;18.99;34.04
76973;BME280;65907;53.640;10.050;2023-04-03T07:37:18;102734.41;;;18.99;34.13
76973;BME280;65907;53.640;10.050;2023-04-03T07:39:46;102738.78;;;18.97;34.29
76973;BME280;65907;53.640;10.050;2023-04-03T07:42:11;102731.72;;;19.00;33.89
76973;BME280;65907;53.640;10.050;2023-04-03T07:44:37;102728.38;;;18.97;34.29
76973;BME280;65907;53.640;10.050;2023-04-03T07:47:05;102736.03;;;19.01;34.26
76973;BME280;65907;53.640;10.050;2023-04-03T07:49:30;102732.50;;;19.02;34.20
76973;BME280;65907;53.640;10.050;2023-04-03T07:51:56;102742.16;;;19.00;33.83
76973;BME280;65907;53.640;10.050;2023-04-03T07:54:21;102734.66;;;19.13;33.79
76973;BME280;65907;53.640;10.050;2023-04-03T07:56:47;102738.22;;;19.11;33.85
76973;BME280;65907;53.640;10.050;2023-04-03T07:59:13;102731.28;;;19.11;33.75
76973;BME280;65907;53.640;10.050;2023-04-03T08:01:38;102723.25;;;19.16;33.83
76973;BME280;65907;53.640;10.050;2023-04-03T08:04:03;102722.66;;;19.09;34.02
76973;BME280;65907;53.640;10.050;2023-04-03T08:06:28;102727.59;;;19.15;34.13
76973;BME280;65907;53.640;10.050;2023-04-03T08:08:56;102718.38;;;19.08;34.15
76973;BME280;65907;53.640;10.050;2023-04-03T08:11:22;102726.41;;;19.23;34.01
76973;BME280;65907;53.640;10.050;2023-04-03T08:13:48;102727.75;;;19.12;34.10
76973;BME280;65907;53.640;10.050;2023-04-03T08:16:17;102733.88;;;19.11;33.97
76973;BME280;65907;53.640;10.050;2023-04-03T08:18:43;102730.03;;;19.20;34.19
76973;BME280;65907;53.640;10.050;2023-04-03T08:21:09;102724.94;;;19.17;34.15
76973;BME280;65907;53.640;10.050;2023-04-03T08:23:36;102732.53;;;19.22;33.85
76973;BME280;65907;53.640;10.050;2023-04-03T08:26:08;102737.72;;;19.23;33.80
76973;BME280;65907;53.640;10.050;2023-04-03T08:28:33;102736.03;;;19.22;33.78
76973;BME280;65907;53.640;10.050;2023-04-03T08:31:02;102735.28;;;19.18;33.98
76973;BME280;65907;53.640;10.050;2023-04-03T08:33:30;102730.06;;;19.18;34.26
76973;BME280;65907;53.640;10.050;2023-04-03T08:35:56;102734.97;;;19.26;34.18
76973;BME280;65907;53.640;10.050;2023-04-03T08:38:23;102721.97;;;19.25;34.06
76973;BME280;65907;53.640;10.050;2023-04-03T08:40:59;102723.66;;;19.26;34.20
76973;BME280;65907;53.640;10.050;2023-04-03T08:43:44;102721.97;;;19.25;33.93
76973;BME280;65907;53.640;10.050;2023-04-03T08:46:15;102728.78;;;19.29;34.20
76973;BME280;65907;53.640;10.050;2023-04-03T08:48:45;102729.69;;;19.28;33.79
76973;BME280;65907;53.640;10.050;2023-04-03T08:51:15;102721.00;;;19.27;34.04
76973;BME280;65907;53.640;10.050;2023-04-03T08:54:03;102721.06;;;19.26;33.88
76973;BME280;65907;53.640;10.050;2023-04-03T08:56:27;102719.72;;;19.17;34.07
76973;BME280;65907;53.640;10.050;2023-04-03T09:01:26;102715.28;;;19.19;34.12
76973;BME280;65907;53.640;10.050;2023-04-03T09:03:54;102716.34;;;19.15;34.31
76973;BME280;65907;53.640;10.050;2023-04-03T09:06:23;102715.72;;;19.29;34.27
76973;BME280;65907;53.640;10.050;2023-04-03T09:16:27;102730.63;;;19.06;34.47
76973;BME280;65907;53.640;10.050;2023-04-03T09:19:02;102720.63;;;18.95;34.70
76973;BME280;65907;53.640;10.050;2023-04-03T09:21:34;102725.97;;;18.92;34.67
76973;BME280;65907;53.640;10.050;2023-04-03T09:24:02;102721.78;;;18.88;35.04
76973;BME280;65907;53.640;10.050;2023-04-03T09:26:30;102722.69;;;18.87;35.10
76973;BME280;65907;53.640;10.050;2023-04-03T09:29:00;102720.50;;;18.77;35.10
76973;BME280;65907;53.640;10.050;2023-04-03T09:31:29;102719.53;;;18.80;34.95
76973;BME280;65907;53.640;10.050;2023-04-03T09:33:59;102714.22;;;18.82;34.81
76973;BME280;65907;53.640;10.050;2023-04-03T09:36:46;102712.28;;;18.87;34.97
76973;BME280;65907;53.640;10.050;2023-04-03T09:39:14;102708.25;;;18.80;34.79
76973;BME280;65907;53.640;10.050;2023-04-03T09:41:42;102711.56;;;18.83;34.88
76973;BME280;65907;53.640;10.050;2023-04-03T09:44:20;102694.34;;;18.79;34.95
76973;BME280;65907;53.640;10.050;2023-04-03T09:46:46;102710.44;;;18.68;35.32
76973;BME280;65907;53.640;10.050;2023-04-03T09:49:11;102708.50;;;18.73;34.87
76973;BME280;65907;53.640;10.050;2023-04-03T09:51:36;102707.59;;;18.74;35.21
76973;BME280;65907;53.640;10.050;2023-04-03T09:54:23;102697.09;;;18.76;35.11
76973;BME280;65907;53.640;10.050;2023-04-03T09:56:50;102693.56;;;18.77;35.28
76973;BME280;65907;53.640;10.050;2023-04-03T09:59:17;102698.88;;;18.75;34.81
76973;BME280;65907;53.640;10.050;2023-04-03T10:01:43;102687.91;;;18.88;34.75
76973;BME280;65907;53.640;10.050;2023-04-03T10:04:24;102683.53;;;18.88;34.88
76973;BME280;65907;53.640;10.050;2023-04-03T10:06:51;102680.28;;;18.83;34.89
76973;BME280;65907;53.640;10.050;2023-04-03T10:09:18;102675.31;;;18.77;34.97
76973;BME280;65907;53.640;10.050;2023-04-03T10:14:34;102673.31;;;18.84;34.95
76973;BME280;65907;53.640;10.050;2023-04-03T10:25:00;102665.22;;;18.90;35.10
76973;BME280;65907;53.640;10.050;2023-04-03T10:33:12;102661.97;;;18.85;35.03
76973;BME280;65907;53.640;10.050;2023-04-03T10:43:42;102656.44;;;18.72;35.38
76973;BME280;65907;53.640;10.050;2023-04-03T10:53:44;102653.66;;;18.76;34.80
76973;BME280;65907;53.640;10.050;2023-04-03T10:59:35;102645.66;;;18.60;35.28
76973;BME280;65907;53.640;10.050;2023-04-03T11:01:43;102643.88;;;18.61;35.41
76973;BME280;65907;53.640;10.050;2023-04-03T11:04:10;102642.19;;;18.60;35.24
76973;BME280;65907;53.640;10.050;2023-04-03T11:06:41;102637.88;;;18.59;35.09
76973;BME280;65907;53.640;10.050;2023-04-03T11:09:15;102632.53;;;18.62;35.28
76973;BME280;65907;53.640;10.050;2023-04-03T11:11:43;102622.06;;;18.63;35.04
76973;BME280;65907;53.640;10.050;2023-04-03T11:14:29;102634.00;;;18.69;35.25
76973;BME280;65907;53.640;10.050;2023-04-03T11:16:59;102625.59;;;18.62;35.35
76973;BME280;65907;53.640;10.050;2023-04-03T11:22:00;102622.19;;;18.40;35.50
76973;BME280;65907;53.640;10.050;2023-04-03T11:24:29;102621.88;;;18.47;35.31
76973;BME280;65907;53.640;10.050;2023-04-03T11:26:56;102620.88;;;18.71;34.86
76973;BME280;65907;53.640;10.050;2023-04-03T11:29:24;102614.13;;;18.46;35.54
76973;BME280;65907;53.640;10.050;2023-04-03T11:34:30;102613.19;;;18.47;35.20
76973;BME280;65907;53.640;10.050;2023-04-03T11:37:01;102613.47;;;18.41;35.47
76973;BME280;65907;53.640;10.050;2023-04-03T11:39:33;102614.25;;;18.43;35.35
76973;BME280;65907;53.640;10.050;2023-04-03T11:42:15;102613.78;;;18.33;35.44
76973;BME280;65907;53.640;10.050;2023-04-03T11:44:41;102617.81;;;18.40;35.69
76973;BME280;65907;53.640;10.050;2023-04-03T11:47:10;102610.69;;;18.45;35.38
76973;BME280;65907;53.640;10.050;2023-04-03T12:13:38;102598.03;;;18.57;34.75
76973;BME280;65907;53.640;10.050;2023-04-03T12:16:04;102597.06;;;18.59;34.77
76973;BME280;65907;53.640;10.050;2023-04-03T12:18:41;102593.72;;;18.56;34.85
76973;BME280;65907;53.640;10.050;2023-04-03T12:21:07;102603.19;;;18.38;35.42
76973;BME280;65907;53.640;10.050;2023-04-03T12:23:36;102603.63;;;18.47;35.09
76973;BME280;65907;53.640;10.050;2023-04-03T12:26:04;102597.09;;;18.58;34.66
76973;BME280;65907;53.640;10.050;2023-04-03T12:28:35;102588.66;;;18.53;34.76
76973;BME280;65907;53.640;10.050;2023-04-03T12:31:03;102588.19;;;18.43;35.09
76973;BME280;65907;53.640;10.050;2023-04-03T12:33:32;102585.91;;;18.56;34.87
76973;BME280;65907;53.640;10.050;2023-04-03T12:36:18;102585.06;;;18.55;34.87
76973;BME280;65907;53.640;10.050;2023-04-03T12:39:52;102581.63;;;18.55;34.68
76973;BME280;65907;53.640;10.050;2023-04-03T12:49:57;102562.31;;;18.59;34.77
76973;BME280;65907;53.640;10.050;2023-04-03T12:52:30;102557.28;;;18.75;34.01
76973;BME280;65907;53.640;10.050;2023-04-03T12:54:57;102555.59;;;18.74;34.08
76973;BME280;65907;53.640;10.050;2023-04-03T12:57:24;102551.16;;;18.76;33.94
76973;BME280;65907;53.640;10.050;2023-04-03T12:59:50;102547.41;;;18.82;33.95
76973;BME280;65907;53.640;10.050;2023-04-03T13:04:49;102549.69;;;18.70;34.18
76973;BME280;65907;53.640;10.050;2023-04-03T13:07:22;102547.50;;;18.80;33.75
76973;BME280;65907;53.640;10.050;2023-04-03T13:12:31;102534.97;;;18.88;33.49
76973;BME280;65907;53.640;10.050;2023-04-03T13:14:58;102537.84;;;18.82;34.04
76973;BME280;65907;53.640;10.050;2023-04-03T13:17:30;102524.59;;;18.87;34.07
76973;BME280;65907;53.640;10.050;2023-04-03T13:19:56;102529.66;;;18.90;33.77
76973;BME280;65907;53.640;10.050;2023-04-03T13:22:38;102522.72;;;18.90;34.10
76973;BME280;65907;53.640;10.050;2023-04-03T13:25:08;102526.94;;;18.93;33.75
76973;BME280;65907;53.640;10.050;2023-04-03T13:27:37;102514.81;;;18.92;33.62
76973;BME280;65907;53.640;10.050;2023-04-03T13:30:04;102532.66;;;18.82;33.88
76973;BME280;65907;53.640;10.050;2023-04-03T13:32:30;102523.63;;;18.89;33.80
76973;BME280;65907;53.640;10.050;2023-04-03T13:34:58;102520.25;;;18.87;33.63
76973;BME280;65907;53.640;10.050;2023-04-03T13:37:28;102516.72;;;18.88;33.38
76973;BME280;65907;53.640;10.050;2023-04-03T13:43:05;102504.03;;;18.81;33.30
76973;BME280;65907;53.640;10.050;2023-04-03T13:45:34;102510.66;;;18.88;33.02
76973;BME280;65907;53.640;10.050;2023-04-03T13:48:10;102500.59;;;18.80;33.44
76973;BME280;65907;53.640;10.050;2023-04-03T13:50:50;102501.78;;;18.73;33.26
76973;BME280;65907;53.640;10.050;2023-04-03T13:53:16;102497.28;;;18.76;33.50
76973;BME280;65907;53.640;10.050;2023-04-03T13:56:04;102499.75;;;18.80;33.44
76973;BME280;65907;53.640;10.050;2023-04-03T13:58:28;102500.38;;;18.85;33.41
76973;BME280;65907;53.640;10.050;2023-04-03T14:04:00;102496.63;;;18.90;33.15
76973;BME280;65907;53.640;10.050;2023-04-03T14:06:28;102491.28;;;18.94;33.10
76973;BME280;65907;53.640;10.050;2023-04-03T14:08:54;102491.72;;;18.84;32.81
76973;BME280;65907;53.640;10.050;2023-04-03T14:11:22;102492.34;;;18.89;33.00
76973;BME280;65907;53.640;10.050;2023-04-03T14:13:49;102483.47;;;18.94;33.00
76973;BME280;65907;53.640;10.050;2023-04-03T14:16:15;102479.22;;;18.91;33.34
76973;BME280;65907;53.640;10.050;2023-04-03T14:18:43;102481.63;;;18.96;33.19
76973;BME280;65907;53.640;10.050;2023-04-03T14:21:10;102472.06;;;18.96;33.37
76973;BME280;65907;53.640;10.050;2023-04-03T14:23:36;102478.97;;;18.97;33.31
76973;BME280;65907;53.640;10.050;2023-04-03T14:26:04;102472.50;;;19.06;33.19